createdAt,value
2023-03-27T00:01:28.333Z,2.90
2023-03-27T00:03:55.654Z,2.90
2023-03-27T00:06:24.817Z,2.90
2023-03-27T00:08:52.600Z,2.80
2023-03-27T00:11:21.407Z,2.80
2023-03-27T00:13:50.739Z,2.80
2023-03-27T00:16:23.171Z,2.80
2023-03-27T00:18:50.090Z,2.80
2023-03-27T00:21:17.251Z,2.70
2023-03-27T00:23:44.235Z,2.60
2023-03-27T00:26:14.446Z,2.70
2023-03-27T00:28:42.081Z,2.60
2023-03-27T00:31:13.960Z,2.60
2023-03-27T00:33:41.649Z,2.70
2023-03-27T00:36:10.194Z,2.90
2023-03-27T00:38:37.158Z,2.70
2023-03-27T00:41:04.979Z,2.60
2023-03-27T00:43:34.139Z,2.60
2023-03-27T00:46:31.765Z,2.70
2023-03-27T00:49:03.355Z,2.60
2023-03-27T00:51:31.695Z,2.60
2023-03-27T00:53:59.811Z,2.40
2023-03-27T00:56:26.947Z,2.40
2023-03-27T00:59:02.019Z,2.40
2023-03-27T01:01:32.275Z,2.40
2023-03-27T01:04:06.277Z,2.30
2023-03-27T01:06:34.643Z,2.20
2023-03-27T01:09:01.781Z,2.20
2023-03-27T01:12:00.804Z,2.20
2023-03-27T01:14:36.683Z,2.20
2023-03-27T01:17:31.381Z,2.30
2023-03-27T01:20:07.229Z,2.30
2023-03-27T01:22:55.610Z,2.40
2023-03-27T01:25:47.268Z,2.30
2023-03-27T01:28:29.165Z,2.20
2023-03-27T01:31:05.156Z,2.40
2023-03-27T01:34:09.752Z,2.30
2023-03-27T01:37:06.360Z,2.20
2023-03-27T01:39:34.441Z,2.20
2023-03-27T01:42:21.920Z,2.20
2023-03-27T01:45:08.778Z,2.10
2023-03-27T01:47:47.897Z,2.10
2023-03-27T01:50:17.522Z,2.20
2023-03-27T01:52:50.939Z,2.10
2023-03-27T01:55:20.301Z,2.10
2023-03-27T01:57:54.054Z,2.10
2023-03-27T02:00:23.638Z,2.00
2023-03-27T02:02:58.853Z,1.90
2023-03-27T02:05:49.124Z,1.90
2023-03-27T02:08:28.218Z,1.90
2023-03-27T02:10:58.395Z,1.90
2023-03-27T02:13:49.030Z,1.80
2023-03-27T02:16:22.181Z,1.80
2023-03-27T02:18:59.029Z,1.90
2023-03-27T02:21:26.323Z,1.90
2023-03-27T02:23:53.347Z,1.90
2023-03-27T02:26:20.494Z,1.90
2023-03-27T02:29:12.650Z,1.80
2023-03-27T02:32:12.999Z,1.90
2023-03-27T02:34:58.787Z,1.90
2023-03-27T02:37:37.623Z,1.80
2023-03-27T02:40:10.632Z,1.70
2023-03-27T02:43:21.736Z,1.70
2023-03-27T02:46:10.642Z,1.80
2023-03-27T02:48:47.524Z,1.80
2023-03-27T02:51:18.495Z,1.80
2023-03-27T02:53:57.749Z,1.80
2023-03-27T02:56:27.235Z,1.70
2023-03-27T02:59:05.337Z,1.70
2023-03-27T03:01:34.109Z,1.80
2023-03-27T03:04:07.396Z,1.70
2023-03-27T03:06:35.724Z,1.70
2023-03-27T03:09:07.066Z,1.70
2023-03-27T03:11:37.228Z,1.70
2023-03-27T03:14:05.043Z,1.60
2023-03-27T03:16:32.056Z,1.60
2023-03-27T03:18:58.999Z,1.70
2023-03-27T03:21:25.808Z,1.70
2023-03-27T03:23:58.135Z,1.50
2023-03-27T03:26:27.079Z,1.50
2023-03-27T03:29:01.074Z,1.40
2023-03-27T03:31:43.141Z,1.60
2023-03-27T03:34:16.328Z,1.50
2023-03-27T03:36:44.759Z,1.50
2023-03-27T03:39:12.678Z,1.50
2023-03-27T03:41:39.884Z,1.50
2023-03-27T03:44:07.017Z,1.50
2023-03-27T03:46:34.054Z,1.40
2023-03-27T03:49:01.181Z,1.30
2023-03-27T03:51:28.447Z,1.30
2023-03-27T03:53:55.335Z,1.30
2023-03-27T03:56:22.364Z,1.30
2023-03-27T03:58:49.213Z,1.20
2023-03-27T04:01:20.537Z,1.30
2023-03-27T04:03:48.447Z,1.30
2023-03-27T04:06:21.707Z,1.20
2023-03-27T04:08:48.655Z,1.30
2023-03-27T04:11:15.634Z,1.30
2023-03-27T04:13:42.492Z,1.30
2023-03-27T04:16:09.666Z,1.30
2023-03-27T04:18:39.419Z,1.20
2023-03-27T04:21:06.821Z,1.20
2023-03-27T04:23:33.933Z,1.20
2023-03-27T04:26:02.113Z,1.40
2023-03-27T04:28:34.602Z,1.30
2023-03-27T04:31:06.400Z,1.30
2023-03-27T04:33:39.386Z,1.30
2023-03-27T04:36:08.396Z,1.30
2023-03-27T04:38:36.962Z,1.20
2023-03-27T04:41:04.760Z,1.20
2023-03-27T04:43:31.722Z,1.20
2023-03-27T04:45:58.535Z,1.10
2023-03-27T04:48:26.678Z,1.10
2023-03-27T04:50:53.684Z,1.10
2023-03-27T04:53:20.610Z,1.10
2023-03-27T04:55:51.171Z,1.00
2023-03-27T04:58:19.187Z,1.00
2023-03-27T05:00:50.713Z,0.90
2023-03-27T05:03:19.024Z,0.90
2023-03-27T05:05:50.122Z,0.90
2023-03-27T05:08:17.581Z,0.90
2023-03-27T05:10:45.519Z,0.90
2023-03-27T05:13:12.881Z,0.90
2023-03-27T05:15:39.803Z,1.00
2023-03-27T05:18:07.457Z,1.00
2023-03-27T05:20:35.386Z,1.00
2023-03-27T05:23:02.861Z,1.00
2023-03-27T05:25:31.197Z,1.00
2023-03-27T05:27:58.626Z,1.00
2023-03-27T05:30:26.964Z,1.00
2023-03-27T05:32:54.298Z,1.00
2023-03-27T05:35:23.793Z,1.00
2023-03-27T05:37:53.386Z,1.00
2023-03-27T05:40:22.533Z,1.00
2023-03-27T05:42:51.165Z,1.00
2023-03-27T05:45:18.679Z,1.00
2023-03-27T05:47:50.665Z,1.00
2023-03-27T05:50:19.546Z,1.00
2023-03-27T05:52:46.977Z,1.00
2023-03-27T05:55:17.356Z,1.00
2023-03-27T05:57:44.466Z,1.00
2023-03-27T06:00:16.425Z,1.00
2023-03-27T06:02:44.967Z,1.10
2023-03-27T06:05:14.144Z,1.10
2023-03-27T06:07:44.026Z,1.10
2023-03-27T06:10:14.290Z,1.10
2023-03-27T06:12:42.754Z,1.20
2023-03-27T06:15:10.948Z,1.20
2023-03-27T06:17:42.512Z,1.30
2023-03-27T06:20:12.739Z,1.40
2023-03-27T06:22:44.798Z,1.50
2023-03-27T06:25:11.852Z,1.70
2023-03-27T06:27:39.235Z,1.90
2023-03-27T06:30:07.160Z,2.10
2023-03-27T06:32:36.473Z,2.20
2023-03-27T06:35:03.588Z,2.30
2023-03-27T06:37:33.898Z,2.30
2023-03-27T06:40:02.225Z,2.30
2023-03-27T06:42:29.160Z,2.40
2023-03-27T06:44:56.012Z,2.40
2023-03-27T06:47:23.011Z,2.30
2023-03-27T06:49:49.949Z,2.30
2023-03-27T06:52:16.718Z,2.30
2023-03-27T06:54:44.660Z,2.30
2023-03-27T06:57:12.440Z,2.30
2023-03-27T06:59:39.325Z,2.40
2023-03-27T07:02:06.605Z,2.40
2023-03-27T07:04:33.871Z,2.50
2023-03-27T07:07:00.935Z,2.60
2023-03-27T07:09:27.850Z,2.70
2023-03-27T07:11:54.690Z,2.80
2023-03-27T07:14:21.587Z,2.90
2023-03-27T07:16:48.514Z,2.90
2023-03-27T07:19:15.509Z,2.90
2023-03-27T07:21:42.377Z,3.00
2023-03-27T07:24:09.292Z,3.10
2023-03-27T07:26:36.148Z,3.50
2023-03-27T07:29:03.862Z,4.40
2023-03-27T07:31:51.060Z,4.70
2023-03-27T07:34:17.695Z,4.60
2023-03-27T07:36:44.780Z,4.80
2023-03-27T07:39:13.137Z,5.60
2023-03-27T07:41:40.006Z,6.50
2023-03-27T07:44:07.050Z,7.30
2023-03-27T07:46:33.938Z,8.00
2023-03-27T07:49:01.109Z,8.60
2023-03-27T07:51:28.252Z,8.90
2023-03-27T07:53:55.807Z,9.30
2023-03-27T07:56:23.581Z,9.70
2023-03-27T07:58:51.490Z,9.80
2023-03-27T08:01:18.383Z,10.00
2023-03-27T08:03:47.279Z,10.20
2023-03-27T08:06:14.426Z,10.50
2023-03-27T08:08:41.409Z,10.70
2023-03-27T08:11:16.130Z,10.60
2023-03-27T08:13:50.352Z,10.70
2023-03-27T08:16:18.785Z,10.20
2023-03-27T08:18:46.895Z,10.10
2023-03-27T08:21:13.675Z,10.40
2023-03-27T08:23:41.117Z,10.10
2023-03-27T08:26:09.197Z,9.90
2023-03-27T08:28:37.824Z,10.10
2023-03-27T08:31:16.055Z,10.40
2023-03-27T08:33:43.280Z,10.10
2023-03-27T08:36:11.881Z,10.20
2023-03-27T08:38:39.486Z,9.90
2023-03-27T08:41:07.808Z,9.40
2023-03-27T08:43:44.024Z,9.40
2023-03-27T08:46:20.787Z,9.50
2023-03-27T08:49:22.370Z,9.40
2023-03-27T08:51:52.484Z,9.50
2023-03-27T08:54:23.731Z,9.40
2023-03-27T08:56:51.038Z,9.60
2023-03-27T08:59:36.954Z,9.40
2023-03-27T09:02:08.797Z,9.00
2023-03-27T09:05:04.909Z,8.50
2023-03-27T09:07:45.963Z,8.70
2023-03-27T09:10:22.294Z,9.40
2023-03-27T09:12:59.513Z,9.40
2023-03-27T09:15:31.824Z,9.30
2023-03-27T09:18:13.086Z,9.20
2023-03-27T09:20:44.934Z,9.30
2023-03-27T09:23:21.062Z,9.80
2023-03-27T09:25:53.505Z,10.00
2023-03-27T09:28:38.121Z,9.90
2023-03-27T09:31:36.303Z,10.10
2023-03-27T09:34:06.160Z,10.20
2023-03-27T09:36:35.776Z,10.20
2023-03-27T09:39:08.282Z,9.90
2023-03-27T09:41:42.310Z,9.80
2023-03-27T09:44:25.636Z,9.40
2023-03-27T09:47:17.280Z,9.00
2023-03-27T09:50:06.922Z,8.90
2023-03-27T09:52:38.880Z,8.80
2023-03-27T09:55:27.181Z,8.90
2023-03-27T09:58:00.580Z,8.80
2023-03-27T10:00:34.026Z,8.80
2023-03-27T10:03:04.103Z,8.70
2023-03-27T10:05:32.708Z,8.60
2023-03-27T10:08:00.730Z,8.30
2023-03-27T10:10:32.439Z,7.90
2023-03-27T10:13:00.910Z,7.50
2023-03-27T10:15:34.468Z,6.80
2023-03-27T10:18:04.756Z,5.90
2023-03-27T10:20:31.830Z,5.70
2023-03-27T10:23:07.039Z,5.30
2023-03-27T10:25:39.975Z,5.30
2023-03-27T10:28:27.035Z,5.60
2023-03-27T10:31:02.854Z,5.80
2023-03-27T10:33:35.265Z,5.90
2023-03-27T10:36:02.985Z,6.20
2023-03-27T10:38:33.315Z,6.80
2023-03-27T10:41:04.120Z,7.00
2023-03-27T10:43:40.476Z,7.70
2023-03-27T10:46:21.010Z,8.10
2023-03-27T10:49:17.617Z,8.50
2023-03-27T10:52:07.805Z,9.30
2023-03-27T10:54:43.982Z,9.70
2023-03-27T10:57:17.222Z,10.20
2023-03-27T10:59:51.600Z,10.20
2023-03-27T11:02:30.871Z,10.10
2023-03-27T11:05:14.073Z,10.50
2023-03-27T11:08:10.187Z,10.90
2023-03-27T11:10:42.850Z,11.00
2023-03-27T11:13:28.222Z,10.90
2023-03-27T11:16:14.802Z,10.20
2023-03-27T11:18:48.838Z,10.20
2023-03-27T11:21:29.402Z,9.90
2023-03-27T11:23:59.988Z,10.10
2023-03-27T11:26:44.280Z,10.40
2023-03-27T11:29:23.009Z,10.50
2023-03-27T11:31:53.226Z,10.60
2023-03-27T11:34:33.996Z,11.10
2023-03-27T11:37:22.514Z,11.30
2023-03-27T11:40:09.405Z,11.70
2023-03-27T11:42:42.481Z,11.50
2023-03-27T11:45:14.946Z,11.00
2023-03-27T11:48:21.175Z,10.60
2023-03-27T11:51:26.256Z,10.00
2023-03-27T11:54:16.289Z,10.10
2023-03-27T11:56:57.989Z,10.20
2023-03-27T11:59:40.183Z,9.90
2023-03-27T12:02:28.947Z,9.60
2023-03-27T12:05:01.785Z,9.10
2023-03-27T12:07:47.696Z,8.70
2023-03-27T12:10:28.406Z,8.40
2023-03-27T12:13:14.254Z,8.00
2023-03-27T12:15:49.053Z,7.60
2023-03-27T12:18:45.275Z,7.60
2023-03-27T12:21:41.437Z,7.20
2023-03-27T12:24:35.581Z,7.10
2023-03-27T12:27:44.870Z,7.00
2023-03-27T12:30:36.094Z,6.90
2023-03-27T12:33:14.972Z,7.30
2023-03-27T12:35:47.036Z,7.50
2023-03-27T12:38:39.844Z,7.60
2023-03-27T12:41:39.812Z,7.70
2023-03-27T12:44:06.858Z,7.90
2023-03-27T12:46:39.081Z,8.10
2023-03-27T12:49:06.255Z,8.40
2023-03-27T12:52:04.236Z,8.60
2023-03-27T12:54:39.166Z,8.40
2023-03-27T12:57:22.001Z,7.80
2023-03-27T12:59:48.937Z,7.60
2023-03-27T13:02:18.786Z,7.50
2023-03-27T13:05:13.561Z,7.80
2023-03-27T13:08:16.589Z,8.50
2023-03-27T13:10:58.596Z,8.80
2023-03-27T13:13:59.792Z,9.00
2023-03-27T13:16:26.637Z,9.00
2023-03-27T13:19:00.837Z,8.90
2023-03-27T13:21:42.853Z,8.80
2023-03-27T13:24:33.922Z,8.90
2023-03-27T13:27:34.033Z,9.00
2023-03-27T13:30:01.046Z,9.30
2023-03-27T13:32:41.268Z,9.10
2023-03-27T13:35:21.100Z,8.90
2023-03-27T13:37:51.681Z,8.80
2023-03-27T13:40:23.393Z,8.60
2023-03-27T13:43:11.283Z,8.50
2023-03-27T13:45:40.265Z,8.20
2023-03-27T13:48:25.623Z,8.10
2023-03-27T13:51:29.463Z,8.00
2023-03-27T13:54:27.402Z,7.90
2023-03-27T13:57:00.696Z,8.00
2023-03-27T13:59:58.797Z,8.10
2023-03-27T14:03:01.278Z,7.80
2023-03-27T14:05:52.426Z,7.70
2023-03-27T14:08:35.731Z,7.70
2023-03-27T14:11:23.705Z,8.00
2023-03-27T14:13:59.285Z,8.40
2023-03-27T14:16:44.984Z,8.80
2023-03-27T14:19:29.690Z,8.90
2023-03-27T14:22:05.363Z,8.80
2023-03-27T14:24:45.860Z,8.50
2023-03-27T14:27:18.598Z,8.30
2023-03-27T14:29:46.228Z,8.20
2023-03-27T14:32:16.017Z,8.20
2023-03-27T14:34:54.491Z,8.10
2023-03-27T14:37:31.844Z,8.10
2023-03-27T14:40:00.813Z,8.10
2023-03-27T14:42:33.309Z,8.30
2023-03-27T14:45:22.051Z,8.40
2023-03-27T14:47:56.661Z,8.50
2023-03-27T14:50:26.686Z,8.50
2023-03-27T14:52:55.794Z,8.40
2023-03-27T14:55:32.391Z,8.20
2023-03-27T14:58:10.922Z,8.20
2023-03-27T15:00:40.945Z,8.20
2023-03-27T15:03:14.371Z,8.00
2023-03-27T15:06:04.586Z,7.80
2023-03-27T15:08:37.246Z,7.60
2023-03-27T15:11:10.670Z,7.50
2023-03-27T15:13:37.734Z,7.60
2023-03-27T15:16:06.708Z,7.60
2023-03-27T15:18:49.326Z,7.40
2023-03-27T15:21:34.795Z,7.40
2023-03-27T15:24:13.505Z,7.40
2023-03-27T15:26:41.069Z,7.40
2023-03-27T15:29:38.845Z,7.50
2023-03-27T15:32:09.825Z,7.40
2023-03-27T15:34:46.390Z,7.50
2023-03-27T15:37:19.211Z,7.40
2023-03-27T15:40:22.499Z,7.30
2023-03-27T15:42:52.265Z,7.10
2023-03-27T15:45:34.055Z,6.90
2023-03-27T15:48:15.996Z,6.60
2023-03-27T15:51:01.605Z,6.50
2023-03-27T15:53:41.914Z,6.50
2023-03-27T15:56:29.057Z,6.40
2023-03-27T15:59:04.333Z,6.20
2023-03-27T16:01:53.110Z,6.30
2023-03-27T16:04:26.478Z,6.30
2023-03-27T16:07:03.581Z,6.40
2023-03-27T16:09:39.938Z,6.50
2023-03-27T16:12:09.953Z,6.50
2023-03-27T16:14:52.221Z,6.60
2023-03-27T16:17:44.846Z,6.40
2023-03-27T16:20:12.816Z,6.10
2023-03-27T16:22:40.093Z,6.00
2023-03-27T16:25:12.191Z,5.80
2023-03-27T16:27:58.709Z,5.80
2023-03-27T16:30:36.027Z,5.70
2023-03-27T16:33:08.926Z,5.70
2023-03-27T16:35:36.047Z,5.60
2023-03-27T16:38:03.058Z,5.80
2023-03-27T16:40:29.930Z,5.80
2023-03-27T16:42:56.834Z,5.60
2023-03-27T16:45:23.702Z,5.50
2023-03-27T16:47:53.173Z,5.40
2023-03-27T16:50:24.379Z,5.20
2023-03-27T16:52:51.305Z,5.00
2023-03-27T16:55:18.378Z,4.90
2023-03-27T16:57:46.672Z,4.80
2023-03-27T17:00:15.615Z,4.80
2023-03-27T17:02:44.560Z,4.80
2023-03-27T17:05:11.651Z,4.80
2023-03-27T17:07:38.767Z,4.70
2023-03-27T17:10:06.667Z,4.50
2023-03-27T17:12:33.499Z,4.20
2023-03-27T17:15:00.565Z,4.00
2023-03-27T17:17:27.746Z,3.80
2023-03-27T17:19:54.675Z,3.70
2023-03-27T17:22:21.565Z,3.70
2023-03-27T17:24:56.951Z,3.50
2023-03-27T17:27:26.603Z,3.60
2023-03-27T17:29:56.276Z,3.70
2023-03-27T17:32:24.688Z,3.70
2023-03-27T17:34:52.235Z,3.60
2023-03-27T17:37:20.914Z,3.30
2023-03-27T17:39:48.417Z,3.30
2023-03-27T17:42:15.866Z,3.20
2023-03-27T17:44:44.537Z,3.10
2023-03-27T17:47:11.619Z,3.10
2023-03-27T17:49:38.575Z,3.10
2023-03-27T17:52:08.293Z,3.20
2023-03-27T17:54:35.342Z,3.40
2023-03-27T17:57:03.136Z,3.40
2023-03-27T17:59:32.926Z,3.40
2023-03-27T18:01:59.908Z,3.30
2023-03-27T18:04:26.826Z,3.40
2023-03-27T18:06:53.782Z,3.40
2023-03-27T18:09:21.024Z,3.20
2023-03-27T18:11:48.144Z,3.30
2023-03-27T18:14:15.033Z,3.30
2023-03-27T18:16:41.965Z,3.30
2023-03-27T18:19:09.378Z,3.40
2023-03-27T18:21:36.336Z,3.40
2023-03-27T18:24:03.651Z,3.40
2023-03-27T18:26:30.648Z,3.40
2023-03-27T18:28:57.789Z,3.30
2023-03-27T18:31:25.178Z,3.30
2023-03-27T18:33:52.508Z,3.30
2023-03-27T18:36:19.461Z,3.30
2023-03-27T18:38:49.150Z,3.30
2023-03-27T18:41:17.189Z,3.30
2023-03-27T18:43:44.151Z,3.30
2023-03-27T18:46:16.400Z,3.40
2023-03-27T18:48:44.760Z,3.50
2023-03-27T18:51:11.996Z,3.30
2023-03-27T18:53:38.852Z,3.30
2023-03-27T18:56:06.447Z,3.30
2023-03-27T18:58:33.918Z,3.40
2023-03-27T19:01:00.888Z,3.40
2023-03-27T19:03:30.671Z,3.40
2023-03-27T19:06:01.416Z,3.40
2023-03-27T19:08:28.244Z,3.40
2023-03-27T19:10:58.408Z,3.40
2023-03-27T19:13:25.867Z,3.40
2023-03-27T19:15:52.838Z,3.40
2023-03-27T19:18:19.744Z,3.40
2023-03-27T19:20:46.846Z,3.30
2023-03-27T19:23:14.302Z,3.30
2023-03-27T19:25:45.490Z,3.30
2023-03-27T19:28:12.478Z,3.40
2023-03-27T19:30:39.371Z,3.40
2023-03-27T19:33:06.659Z,3.40
2023-03-27T19:35:33.824Z,3.40
2023-03-27T19:38:00.916Z,3.40
2023-03-27T19:40:27.966Z,3.30
2023-03-27T19:42:54.892Z,3.30
2023-03-27T19:45:21.919Z,3.30
2023-03-27T19:47:48.870Z,3.30
2023-03-27T19:50:16.195Z,3.30
2023-03-27T19:52:46.157Z,3.20
2023-03-27T19:55:23.989Z,3.20
2023-03-27T19:57:53.011Z,3.20
2023-03-27T20:00:20.058Z,3.30
2023-03-27T20:02:47.577Z,3.40
2023-03-27T20:05:14.728Z,3.20
2023-03-27T20:07:41.582Z,3.20
2023-03-27T20:10:08.760Z,3.10
2023-03-27T20:12:35.934Z,3.10
2023-03-27T20:17:34.224Z,3.00
2023-03-27T20:20:01.184Z,3.00
2023-03-27T20:22:29.737Z,3.10
2023-03-27T20:24:56.614Z,3.00
2023-03-27T20:27:23.468Z,3.00
2023-03-27T20:29:50.614Z,3.10
2023-03-27T20:32:17.501Z,3.10
2023-03-27T20:34:46.352Z,3.10
2023-03-27T20:37:13.380Z,3.10
2023-03-27T20:39:49.539Z,3.10
2023-03-27T20:42:18.154Z,3.00
2023-03-27T20:44:46.795Z,3.00
2023-03-27T20:47:14.982Z,2.90
2023-03-27T20:49:43.692Z,2.90
2023-03-27T20:52:18.725Z,2.80
2023-03-27T20:54:45.774Z,2.80
2023-03-27T20:57:12.657Z,2.90
2023-03-27T20:59:39.503Z,3.00
2023-03-27T21:02:06.892Z,3.00
2023-03-27T21:04:33.919Z,3.10
2023-03-27T21:07:00.740Z,3.10
2023-03-27T21:09:27.929Z,3.20
2023-03-27T21:11:55.530Z,3.20
2023-03-27T21:14:23.082Z,3.30
2023-03-27T21:16:50.331Z,3.20
2023-03-27T21:19:17.835Z,3.40
2023-03-27T21:21:45.242Z,3.40
2023-03-27T21:24:13.229Z,3.30
2023-03-27T21:26:40.192Z,3.10
2023-03-27T21:29:10.490Z,3.10
2023-03-27T21:31:39.038Z,3.00
2023-03-27T21:34:05.996Z,2.80
2023-03-27T21:36:33.164Z,2.80
2023-03-27T21:39:00.502Z,2.90
2023-03-27T21:41:27.522Z,2.60
2023-03-27T21:43:54.295Z,2.50
2023-03-27T21:46:21.403Z,2.50
2023-03-27T21:48:49.792Z,2.40
2023-03-27T21:51:16.794Z,2.40
2023-03-27T21:53:43.609Z,2.50
2023-03-27T21:56:10.425Z,2.40
2023-03-27T21:58:37.458Z,2.50
2023-03-27T22:01:04.617Z,2.50
2023-03-27T22:03:31.467Z,2.40
2023-03-27T22:06:11.702Z,2.30
2023-03-27T22:08:40.828Z,2.30
2023-03-27T22:11:08.044Z,2.10
2023-03-27T22:13:38.706Z,2.20
2023-03-27T22:16:10.854Z,2.30
2023-03-27T22:18:37.891Z,2.20
2023-03-27T22:21:22.821Z,2.20
2023-03-27T22:23:52.958Z,2.20
2023-03-27T22:26:22.219Z,2.10
2023-03-27T22:28:49.577Z,2.00
2023-03-27T22:31:16.566Z,2.00
2023-03-27T22:33:43.524Z,2.00
2023-03-27T22:36:11.705Z,1.90
2023-03-27T22:38:39.472Z,1.90
2023-03-27T22:41:08.051Z,1.90
2023-03-27T22:43:34.959Z,2.00
2023-03-27T22:46:10.386Z,1.90
2023-03-27T22:48:37.256Z,2.10
2023-03-27T22:51:04.572Z,2.00
2023-03-27T22:53:32.016Z,1.90
2023-03-27T22:56:00.311Z,1.90
2023-03-27T22:58:28.314Z,1.70
2023-03-27T23:00:56.008Z,1.90
2023-03-27T23:03:24.081Z,1.80
2023-03-27T23:05:52.329Z,1.70
2023-03-27T23:08:21.430Z,1.70
2023-03-27T23:10:56.245Z,1.80
2023-03-27T23:13:23.981Z,1.80
2023-03-27T23:15:52.108Z,1.60
2023-03-27T23:18:23.892Z,1.70
2023-03-27T23:20:58.813Z,1.70
2023-03-27T23:23:26.828Z,1.70
2023-03-27T23:25:54.123Z,1.70
2023-03-27T23:28:21.160Z,1.60
2023-03-27T23:30:54.788Z,1.50
2023-03-27T23:33:25.318Z,1.50
2023-03-27T23:35:54.304Z,1.50
2023-03-27T23:38:21.216Z,1.60
2023-03-27T23:40:57.826Z,1.60
2023-03-27T23:43:26.117Z,1.70
2023-03-27T23:45:53.762Z,1.50
2023-03-27T23:48:20.628Z,1.50
2023-03-27T23:50:47.725Z,1.50
2023-03-27T23:53:14.745Z,1.50
2023-03-27T23:55:41.555Z,1.40
2023-03-27T23:58:08.456Z,1.40
